Ava J. Mccall — WDI5812 — position and weather

sailwx.info

Track history (hours):
 
Tides and Currents Weather Stations Pressure Air Temp Water Temp Dewpoint Dewpoint Depression Visibility Wind Speed Wind Dir Waves Ship Positions

Ava J. Mccall

Owner: SEACOR MARINE LLC, HOUMA, LA. More information available from US FCC via Universal Licensing System and Coast Guard Vessel Documentation Center.

Last reported at 2017-Aug-23 11:53 UTC. Time now 2017-Nov-20 12:05 UTC.
Position N 29°43' W 093°20'.
Warning: this ship's position is months out of date.

Length 60 m; draft 2 m.

Type: Ship. MMSI: 368153000.

Date/timePositionNaut miles runAvg speedWind from/ knotsBaromVisibWave heightAir tempDewpointWater temp
2017-Aug-23 11:53N 29°43' W 093°20'4 9.8
2017-Aug-23 11:28N 29°47' W 093°21'1 0.1
2017-Aug-22 18:30N 29°48' W 093°20'2 4.2
2017-Aug-22 18:00N 29°46' W 093°21'6 1.3
2017-Aug-22 13:27N 29°41' W 093°23'0 0.0
2017-Aug-22 12:42N 29°41' W 093°23'524.7
2017-Aug-22 12:30N 29°45' W 093°21'3 5.5
2017-Aug-22 12:00N 29°48' W 093°20'0 0.6
2017-Aug-22 11:24N 29°48' W 093°20'0 0.0
2017-Aug-22 11:00N 29°48' W 093°20'0 0.0
2017-Aug-21 21:44N 29°48' W 093°20'8 0.9
2017-Aug-21 13:10N 29°41' W 093°23'2 9.8
2017-Aug-21 13:01N 29°42' W 093°22'611.5
2017-Aug-21 12:30N 29°48' W 093°21'1 1.5
2017-Aug-21 11:49N 29°48' W 093°20'0 0.0
2017-Aug-21 00:15N 29°48' W 093°20'0 0.0
2017-Aug-19 23:25N 29°48' W 093°20'2 4.4
2017-Aug-19 22:59N 29°46' W 093°21'2 0.2
2017-Aug-19 12:49N 29°44' W 093°20'3 9.5
2017-Aug-19 12:30N 29°47' W 093°21'1 0.1
2017-Aug-19 00:11N 29°48' W 093°20'4 0.3
2017-Aug-18 12:58N 29°44' W 093°20'4 8.4
2017-Aug-18 12:31N 29°48' W 093°21'1 0.1
2017-Aug-18 00:03N 29°48' W 093°20'0 0.4
2017-Aug-18 00:00N 29°48' W 093°20'1 0.1
2017-Aug-17 14:20N 29°47' W 093°21'1 4.1
2017-Aug-17 13:59N 29°48' W 093°20'0 0.1
2017-Aug-17 13:14N 29°48' W 093°20'0 0.0
2017-Aug-17 12:50N 29°48' W 093°20'0 0.0
2017-Aug-17 12:14N 29°48' W 093°20'0 0.0
2017-Aug-17 11:56N 29°48' W 093°20'0 0.0
2017-Aug-17 11:26N 29°48' W 093°20'0 0.0
2017-Aug-17 09:32N 29°48' W 093°20'0 0.0
2017-Aug-17 09:20N 29°48' W 093°20'0 0.0
2017-Aug-17 08:56N 29°48' W 093°20'0 0.0
2017-Aug-17 08:29N 29°48' W 093°20'0 0.0
2017-Aug-17 07:56N 29°48' W 093°20'0 0.0
2017-Aug-17 07:26N 29°48' W 093°20'0 0.0
2017-Aug-17 06:56N 29°48' W 093°20'0 0.0
2017-Aug-17 05:50N 29°48' W 093°20'0 0.0
2017-Aug-17 05:26N 29°48' W 093°20'0 0.0
2017-Aug-17 04:56N 29°48' W 093°20'0 0.0
2017-Aug-17 04:20N 29°48' W 093°20'0 0.0
2017-Aug-17 03:56N 29°48' W 093°20'0 0.0
2017-Aug-17 03:20N 29°48' W 093°20'0 0.0
2017-Aug-17 01:38N 29°48' W 093°20'0 0.0
2017-Aug-17 01:14N 29°48' W 093°20'0 0.0
2017-Aug-17 00:56N 29°48' W 093°20'0 0.0
2017-Aug-16 22:32N 29°48' W 093°20'0 0.0
2017-Aug-16 22:20N 29°48' W 093°20'0 0.0
2017-Aug-16 20:44N 29°48' W 093°20'0 0.0
2017-Aug-16 20:14N 29°48' W 093°20'0 0.0
2017-Aug-16 19:44N 29°48' W 093°20'0 0.0
2017-Aug-16 19:26N 29°48' W 093°20'0 0.0
2017-Aug-16 18:56N 29°48' W 093°20'0 0.0
2017-Aug-16 18:14N 29°48' W 093°20'0 0.0
2017-Aug-16 17:56N 29°48' W 093°20'0 0.0
2017-Aug-16 17:14N 29°48' W 093°20'0 0.0
2017-Aug-16 16:56N 29°48' W 093°20'0 0.0
2017-Aug-16 16:23N 29°48' W 093°20'0 0.8
2017-Aug-16 16:00N 29°48' W 093°20'2 0.8
2017-Aug-16 13:57N 29°46' W 093°21'2 3.8
2017-Aug-16 13:29N 29°48' W 093°20'0 0.3
2017-Aug-16 12:58N 29°48' W 093°20'0 0.0
2017-Aug-16 12:28N 29°48' W 093°20'0 0.0
2017-Aug-16 11:56N 29°48' W 093°20'0 0.0
2017-Aug-16 11:22N 29°48' W 093°20'0 0.0
2017-Aug-16 10:46N 29°48' W 093°20'0 0.0
2017-Aug-16 10:17N 29°48' W 093°20'0 0.0
2017-Aug-16 09:58N 29°48' W 093°20'0 0.0
2017-Aug-16 09:28N 29°48' W 093°20'0 0.0
2017-Aug-16 08:04N 29°48' W 093°20'0 0.0
2017-Aug-16 07:40N 29°48' W 093°20'0 0.0
2017-Aug-16 07:28N 29°48' W 093°20'0 0.0
2017-Aug-16 06:52N 29°48' W 093°20'0 0.0
2017-Aug-16 06:25N 29°48' W 093°20'0 0.0
2017-Aug-16 05:52N 29°48' W 093°20'0 0.0
2017-Aug-16 05:28N 29°48' W 093°20'0 0.0
2017-Aug-16 04:58N 29°48' W 093°20'0 0.0
2017-Aug-16 04:16N 29°48' W 093°20'0 0.0
2017-Aug-16 03:58N 29°48' W 093°20'0 0.0
2017-Aug-16 03:25N 29°48' W 093°20'0 0.0
2017-Aug-16 02:58N 29°48' W 093°20'0 0.0
2017-Aug-16 01:55N 29°48' W 093°20'0 0.0
2017-Aug-16 01:16N 29°48' W 093°20'0 0.0
2017-Aug-16 00:58N 29°48' W 093°20'0 0.0
2017-Aug-15 23:52N 29°48' W 093°20'0 0.0
2017-Aug-15 23:13N 29°48' W 093°20'0 0.0
2017-Aug-15 22:43N 29°48' W 093°20'0 0.0
2017-Aug-15 22:28N 29°48' W 093°20'0 0.0
2017-Aug-15 21:16N 29°48' W 093°20'0 0.0
2017-Aug-15 20:40N 29°48' W 093°20'0 0.0
2017-Aug-15 20:14N 29°48' W 093°20'  
Track history (hours):
 
Tides and Currents Weather Stations Pressure Air Temp Water Temp Dewpoint Dewpoint Depression Visibility Wind Speed Wind Dir Waves Ship Positions

Ava J. Mccall

Owner: SEACOR MARINE LLC, HOUMA, LA. More information available from US FCC via Universal Licensing System and Coast Guard Vessel Documentation Center.

Last reported at 2017-Aug-23 11:53 UTC. Time now 2017-Nov-20 12:05 UTC.
Position N 29°43' W 093°20'.
Warning: this ship's position is months out of date.

Length 60 m; draft 2 m.

Type: Ship. MMSI: 368153000.

Date/timePositionNaut miles runAvg speedWind from/ knotsBaromVisibWave heightAir tempDewpointWater temp
2017-Aug-23 11:53N 29°43' W 093°20'4 9.8
2017-Aug-23 11:28N 29°47' W 093°21'1 0.1
2017-Aug-22 18:30N 29°48' W 093°20'2 4.2
2017-Aug-22 18:00N 29°46' W 093°21'6 1.3
2017-Aug-22 13:27N 29°41' W 093°23'0 0.0
2017-Aug-22 12:42N 29°41' W 093°23'524.7
2017-Aug-22 12:30N 29°45' W 093°21'3 5.5
2017-Aug-22 12:00N 29°48' W 093°20'0 0.6
2017-Aug-22 11:24N 29°48' W 093°20'0 0.0
2017-Aug-22 11:00N 29°48' W 093°20'0 0.0
2017-Aug-21 21:44N 29°48' W 093°20'8 0.9
2017-Aug-21 13:10N 29°41' W 093°23'2 9.8
2017-Aug-21 13:01N 29°42' W 093°22'611.5
2017-Aug-21 12:30N 29°48' W 093°21'1 1.5
2017-Aug-21 11:49N 29°48' W 093°20'0 0.0
2017-Aug-21 00:15N 29°48' W 093°20'0 0.0
2017-Aug-19 23:25N 29°48' W 093°20'2 4.4
2017-Aug-19 22:59N 29°46' W 093°21'2 0.2
2017-Aug-19 12:49N 29°44' W 093°20'3 9.5
2017-Aug-19 12:30N 29°47' W 093°21'1 0.1
2017-Aug-19 00:11N 29°48' W 093°20'4 0.3
2017-Aug-18 12:58N 29°44' W 093°20'4 8.4
2017-Aug-18 12:31N 29°48' W 093°21'1 0.1
2017-Aug-18 00:03N 29°48' W 093°20'0 0.4
2017-Aug-18 00:00N 29°48' W 093°20'1 0.1
2017-Aug-17 14:20N 29°47' W 093°21'1 4.1
2017-Aug-17 13:59N 29°48' W 093°20'0 0.1
2017-Aug-17 13:14N 29°48' W 093°20'0 0.0
2017-Aug-17 12:50N 29°48' W 093°20'0 0.0
2017-Aug-17 12:14N 29°48' W 093°20'0 0.0
2017-Aug-17 11:56N 29°48' W 093°20'0 0.0
2017-Aug-17 11:26N 29°48' W 093°20'0 0.0
2017-Aug-17 09:32N 29°48' W 093°20'0 0.0
2017-Aug-17 09:20N 29°48' W 093°20'0 0.0
2017-Aug-17 08:56N 29°48' W 093°20'0 0.0
2017-Aug-17 08:29N 29°48' W 093°20'0 0.0
2017-Aug-17 07:56N 29°48' W 093°20'0 0.0
2017-Aug-17 07:26N 29°48' W 093°20'0 0.0
2017-Aug-17 06:56N 29°48' W 093°20'0 0.0
2017-Aug-17 05:50N 29°48' W 093°20'0 0.0
2017-Aug-17 05:26N 29°48' W 093°20'0 0.0
2017-Aug-17 04:56N 29°48' W 093°20'0 0.0
2017-Aug-17 04:20N 29°48' W 093°20'0 0.0
2017-Aug-17 03:56N 29°48' W 093°20'0 0.0
2017-Aug-17 03:20N 29°48' W 093°20'0 0.0
2017-Aug-17 01:38N 29°48' W 093°20'0 0.0
2017-Aug-17 01:14N 29°48' W 093°20'0 0.0
2017-Aug-17 00:56N 29°48' W 093°20'0 0.0
2017-Aug-16 22:32N 29°48' W 093°20'0 0.0
2017-Aug-16 22:20N 29°48' W 093°20'0 0.0
2017-Aug-16 20:44N 29°48' W 093°20'0 0.0
2017-Aug-16 20:14N 29°48' W 093°20'0 0.0
2017-Aug-16 19:44N 29°48' W 093°20'0 0.0
2017-Aug-16 19:26N 29°48' W 093°20'0 0.0
2017-Aug-16 18:56N 29°48' W 093°20'0 0.0
2017-Aug-16 18:14N 29°48' W 093°20'0 0.0
2017-Aug-16 17:56N 29°48' W 093°20'0 0.0
2017-Aug-16 17:14N 29°48' W 093°20'0 0.0
2017-Aug-16 16:56N 29°48' W 093°20'0 0.0
2017-Aug-16 16:23N 29°48' W 093°20'0 0.8
2017-Aug-16 16:00N 29°48' W 093°20'2 0.8
2017-Aug-16 13:57N 29°46' W 093°21'2 3.8
2017-Aug-16 13:29N 29°48' W 093°20'0 0.3
2017-Aug-16 12:58N 29°48' W 093°20'0 0.0
2017-Aug-16 12:28N 29°48' W 093°20'0 0.0
2017-Aug-16 11:56N 29°48' W 093°20'0 0.0
2017-Aug-16 11:22N 29°48' W 093°20'0 0.0
2017-Aug-16 10:46N 29°48' W 093°20'0 0.0
2017-Aug-16 10:17N 29°48' W 093°20'0 0.0
2017-Aug-16 09:58N 29°48' W 093°20'0 0.0
2017-Aug-16 09:28N 29°48' W 093°20'0 0.0
2017-Aug-16 08:04N 29°48' W 093°20'0 0.0
2017-Aug-16 07:40N 29°48' W 093°20'0 0.0
2017-Aug-16 07:28N 29°48' W 093°20'0 0.0
2017-Aug-16 06:52N 29°48' W 093°20'0 0.0
2017-Aug-16 06:25N 29°48' W 093°20'0 0.0
2017-Aug-16 05:52N 29°48' W 093°20'0 0.0
2017-Aug-16 05:28N 29°48' W 093°20'0 0.0
2017-Aug-16 04:58N 29°48' W 093°20'0 0.0
2017-Aug-16 04:16N 29°48' W 093°20'0 0.0
2017-Aug-16 03:58N 29°48' W 093°20'0 0.0
2017-Aug-16 03:25N 29°48' W 093°20'0 0.0
2017-Aug-16 02:58N 29°48' W 093°20'0 0.0
2017-Aug-16 01:55N 29°48' W 093°20'0 0.0
2017-Aug-16 01:16N 29°48' W 093°20'0 0.0
2017-Aug-16 00:58N 29°48' W 093°20'0 0.0
2017-Aug-15 23:52N 29°48' W 093°20'0 0.0
2017-Aug-15 23:13N 29°48' W 093°20'0 0.0
2017-Aug-15 22:43N 29°48' W 093°20'0 0.0
2017-Aug-15 22:28N 29°48' W 093°20'0 0.0
2017-Aug-15 21:16N 29°48' W 093°20'0 0.0
2017-Aug-15 20:40N 29°48' W 093°20'0 0.0
2017-Aug-15 20:14N 29°48' W 093°20'  

Dump ship's entire track history